Time;durP1;ratioP1;P1;durP2;ratioP2;P2;SDS_P1;SDS_P2;PMS_P1;PMS_P2;Temp;Humidity;BMP_temperature;BMP_pressure;BME280_temperature;BME280_humidity;BME280_pressure;Samples;Min_cycle;Max_cycle;Signal;HPM_P1;HPM_P2
2023/05/24 00:00:41;;;;;;;110.30;2.77;;;19.20;36.40;;;;;;5050579;28;20232;-73
2023/05/24 00:03:08;;;;;;;96.27;2.77;;;19.10;36.50;;;;;;5051261;28;20944;-73
2023/05/24 00:05:36;;;;;;;95.07;2.50;;;19.30;35.60;;;;;;5052684;28;20675;-73
2023/05/24 00:08:02;;;;;;;94.80;2.30;;;19.20;35.80;;;;;;5052582;28;20841;-72
2023/05/24 00:10:28;;;;;;;95.37;2.80;;;19.20;36.30;;;;;;5052863;28;20490;-72
2023/05/24 00:12:54;;;;;;;96.40;3.10;;;18.50;36.00;;;;;;5051969;28;20469;-72
2023/05/24 00:15:19;;;;;;;95.07;2.70;;;17.90;38.90;;;;;;5052908;28;20564;-72
2023/05/24 00:17:45;;;;;;;95.30;2.80;;;17.90;39.70;;;;;;5052779;28;20472;-73
2023/05/24 00:20:12;;;;;;;95.90;2.93;;;18.00;38.00;;;;;;5052423;28;20177;-72
2023/05/24 00:22:38;;;;;;;95.10;2.73;;;17.50;39.30;;;;;;5051992;28;20606;-72
2023/05/24 00:25:04;;;;;;;95.00;2.63;;;17.60;39.50;;;;;;5052160;28;20906;-73
2023/05/24 00:27:30;;;;;;;94.90;2.50;;;17.80;39.60;;;;;;5052826;28;20411;-71
2023/05/24 00:29:56;;;;;;;94.90;2.50;;;18.30;38.40;;;;;;5052410;28;20917;-73
2023/05/24 00:32:21;;;;;;;95.47;3.10;;;18.60;37.10;;;;;;5049906;28;20446;-73
2023/05/24 00:34:47;;;;;;;94.97;2.43;;;18.70;36.60;;;;;;5051399;28;20203;-71
2023/05/24 00:37:13;;;;;;;94.77;2.30;;;18.50;36.70;;;;;;5052259;28;20233;-73
2023/05/24 00:39:40;;;;;;;95.40;2.70;;;18.70;36.90;;;;;;5052155;28;20263;-71
2023/05/24 00:42:05;;;;;;;95.37;2.77;;;18.80;36.20;;;;;;5084511;28;20835;-73
2023/05/24 00:44:31;;;;;;;94.87;2.40;;;18.70;36.50;;;;;;5051390;28;20422;-72
2023/05/24 00:46:57;;;;;;;94.90;2.43;;;18.60;36.30;;;;;;5084101;28;20180;-72
2023/05/24 00:49:23;;;;;;;95.10;2.53;;;18.70;35.70;;;;;;5052150;28;20172;-72
2023/05/24 00:51:50;;;;;;;95.00;2.53;;;18.60;36.20;;;;;;5051871;28;20565;-72
2023/05/24 00:54:17;;;;;;;95.20;2.77;;;18.60;36.50;;;;;;5049835;28;20616;-73
2023/05/24 00:56:42;;;;;;;94.97;2.60;;;18.60;35.90;;;;;;5052078;28;20423;-73
2023/05/24 00:59:08;;;;;;;94.70;2.40;;;18.50;37.60;;;;;;5051978;28;20421;-72
2023/05/24 01:01:36;;;;;;;98.07;2.73;;;18.60;36.10;;;;;;5051187;28;20289;-72
2023/05/24 01:04:02;;;;;;;95.50;3.17;;;18.70;36.30;;;;;;5090653;22;20848;-71
2023/05/24 01:06:28;;;;;;;95.87;3.13;;;18.40;36.50;;;;;;5069311;28;20490;-71
2023/05/24 01:09:12;;;;;;;94.67;2.33;;;18.40;37.60;;;;;;5063422;28;20904;-71
2023/05/24 01:11:52;;;;;;;94.83;2.50;;;18.50;36.80;;;;;;5071696;28;20171;-71
2023/05/24 01:14:18;;;;;;;99.20;2.90;;;18.50;36.30;;;;;;5071022;28;20417;-71
2023/05/24 01:17:16;;;;;;;94.93;2.60;;;18.50;36.10;;;;;;5063745;28;20418;-71
2023/05/24 01:19:53;;;;;;;94.93;2.60;;;18.50;37.50;;;;;;4970370;28;20421;-71
2023/05/24 01:22:48;;;;;;;94.77;2.30;;;18.50;35.70;;;;;;4978425;28;20556;-71
2023/05/24 01:25:27;;;;;;;95.13;2.77;;;18.40;36.30;;;;;;4970511;28;20467;-71
2023/05/24 01:27:54;;;;;;;94.70;2.40;;;17.70;38.10;;;;;;4954361;28;20520;-71
2023/05/24 01:30:20;;;;;;;94.60;2.37;;;17.70;37.90;;;;;;4970378;28;20837;-71
2023/05/24 01:32:46;;;;;;;96.00;3.20;;;18.10;37.60;;;;;;4969668;28;20418;-70
2023/05/24 01:35:12;;;;;;;94.47;2.30;;;18.40;38.40;;;;;;4970016;28;20449;-71
2023/05/24 01:37:37;;;;;;;94.67;2.50;;;18.50;36.10;;;;;;4970191;28;20438;-71
2023/05/24 01:40:05;;;;;;;94.83;2.50;;;18.50;36.10;;;;;;4970417;28;20549;-71
2023/05/24 01:42:30;;;;;;;95.67;2.70;;;18.70;36.60;;;;;;4970591;28;20238;-71
2023/05/24 01:45:15;;;;;;;95.00;2.90;;;18.30;35.10;;;;;;4960281;28;20913;-71
2023/05/24 01:48:18;;;;;;;94.57;2.30;;;18.20;35.60;;;;;;4960533;28;20263;-72
2023/05/24 01:51:07;;;;;;;94.80;2.57;;;18.40;34.80;;;;;;4976485;28;20449;-71
2023/05/24 01:53:34;;;;;;;96.20;3.17;;;18.50;34.60;;;;;;4976127;28;20403;-70
2023/05/24 01:56:05;;;;;;;97.00;2.67;;;18.30;33.10;;;;;;5005805;28;20411;-71
2023/05/24 01:58:32;;;;;;;116.97;3.47;;;18.40;33.40;;;;;;5036551;28;20941;-71
2023/05/24 02:00:58;;;;;;;95.33;2.57;;;18.60;32.50;;;;;;5037579;28;20448;-71
2023/05/24 02:03:24;;;;;;;94.77;2.70;;;18.50;33.90;;;;;;5037307;28;20415;-71
2023/05/24 02:05:50;;;;;;;94.67;2.60;;;18.60;33.70;;;;;;5036488;28;20443;-71
2023/05/24 02:08:16;;;;;;;94.97;2.80;;;18.60;33.20;;;;;;5038004;28;20410;-71
2023/05/24 02:10:41;;;;;;;94.20;2.17;;;18.60;32.30;;;;;;5037477;28;20177;-71
2023/05/24 02:13:07;;;;;;;94.50;2.50;;;18.70;32.60;;;;;;5037174;28;20304;-71
2023/05/24 02:15:34;;;;;;;94.70;2.73;;;18.60;31.60;;;;;;5037644;28;20198;-71
2023/05/24 02:18:00;;;;;;;96.43;3.03;;;18.70;30.60;;;;;;5036499;28;20425;-72
2023/05/24 02:20:29;;;;;;;94.30;2.67;;;18.70;30.00;;;;;;5037516;28;20413;-71
2023/05/24 02:22:58;;;;;;;94.67;2.77;;;18.60;31.70;;;;;;5035847;28;20421;-71
2023/05/24 02:25:24;;;;;;;94.50;2.33;;;18.70;32.40;;;;;;5037428;28;20426;-71
2023/05/24 02:27:50;;;;;;;94.30;2.60;;;18.60;32.30;;;;;;5037464;28;20421;-71
2023/05/24 02:30:16;;;;;;;93.87;2.30;;;18.50;31.60;;;;;;5037644;28;20196;-71
2023/05/24 02:32:42;;;;;;;96.00;3.40;;;18.20;30.40;;;;;;5036933;28;20434;-71
2023/05/24 02:35:07;;;;;;;94.30;2.80;;;18.30;30.50;;;;;;5036988;28;20197;-71
2023/05/24 02:37:33;;;;;;;93.97;2.50;;;18.40;30.00;;;;;;5037593;28;20177;-71
2023/05/24 02:39:59;;;;;;;94.87;2.73;;;18.50;32.10;;;;;;5037420;28;20184;-71
2023/05/24 02:42:24;;;;;;;93.87;2.53;;;18.40;29.90;;;;;;5037427;28;20204;-71
2023/05/24 02:44:51;;;;;;;93.77;2.17;;;18.30;30.20;;;;;;5036906;28;20227;-72
2023/05/24 02:47:18;;;;;;;93.50;2.20;;;18.30;32.00;;;;;;5036008;28;20610;-70
2023/05/24 02:49:44;;;;;;;93.50;2.23;;;18.10;30.50;;;;;;5037349;28;20407;-70
2023/05/24 02:52:09;;;;;;;93.60;2.40;;;17.80;33.40;;;;;;5037411;28;20772;-70
2023/05/24 02:54:35;;;;;;;94.00;2.70;;;17.70;32.30;;;;;;5034573;28;20435;-70
2023/05/24 02:57:01;;;;;;;93.47;2.30;;;17.40;32.90;;;;;;5034340;28;20177;-70
2023/05/24 02:59:27;;;;;;;93.63;2.40;;;17.50;31.90;;;;;;5034113;28;20482;-71
2023/05/24 03:01:53;;;;;;;94.00;2.70;;;17.70;32.60;;;;;;5034028;28;20949;-71
2023/05/24 03:04:18;;;;;;;95.63;2.80;;;17.70;31.10;;;;;;5033505;28;20204;-70
2023/05/24 03:06:44;;;;;;;96.57;2.80;;;17.00;31.90;;;;;;5033995;28;20182;-70
2023/05/24 03:09:10;;;;;;;93.77;2.50;;;17.30;33.80;;;;;;5034138;28;20539;-70
2023/05/24 03:11:35;;;;;;;93.57;2.43;;;17.50;32.10;;;;;;5033914;28;20419;-70
2023/05/24 03:14:01;;;;;;;94.23;2.80;;;17.30;31.10;;;;;;5033466;28;20201;-71
2023/05/24 03:16:27;;;;;;;94.17;2.67;;;17.50;32.80;;;;;;5034033;28;20178;-70
2023/05/24 03:18:54;;;;;;;94.10;2.80;;;16.90;31.70;;;;;;5033935;28;20711;-70
2023/05/24 03:21:20;;;;;;;93.90;2.83;;;16.90;32.20;;;;;;5033967;28;20209;-70
2023/05/24 03:23:45;;;;;;;93.87;2.60;;;16.80;33.40;;;;;;5032420;28;20453;-70
2023/05/24 03:26:14;;;;;;;93.17;2.30;;;17.10;33.20;;;;;;5034163;28;20412;-72
2023/05/24 03:28:40;;;;;;;93.60;2.40;;;17.40;32.70;;;;;;5034606;28;20592;-70
2023/05/24 03:31:06;;;;;;;94.97;3.10;;;17.50;33.40;;;;;;5034607;28;20408;-70
2023/05/24 03:33:32;;;;;;;93.47;2.40;;;17.40;33.40;;;;;;5033855;28;20426;-70
2023/05/24 03:35:57;;;;;;;93.50;2.37;;;17.60;33.70;;;;;;5032986;28;20181;-71
2023/05/24 03:38:23;;;;;;;94.80;2.60;;;17.60;31.80;;;;;;5033903;28;20183;-70
2023/05/24 03:40:49;;;;;;;94.07;2.57;;;17.50;31.80;;;;;;5034079;28;20340;-70
2023/05/24 03:43:15;;;;;;;98.67;2.90;;;17.50;31.60;;;;;;5033784;28;20230;-70
2023/05/24 03:45:41;;;;;;;93.53;2.53;;;17.40;31.80;;;;;;5033834;28;20199;-70
2023/05/24 03:48:07;;;;;;;94.17;2.97;;;17.50;31.30;;;;;;5033248;28;20445;-70
2023/05/24 03:50:33;;;;;;;93.40;2.47;;;17.50;32.60;;;;;;5034043;28;20180;-71
2023/05/24 03:52:58;;;;;;;94.20;2.70;;;17.50;32.30;;;;;;5033050;28;20177;-70
2023/05/24 03:55:24;;;;;;;93.07;2.50;;;17.30;32.40;;;;;;5034054;28;20239;-72
2023/05/24 03:57:49;;;;;;;93.37;2.57;;;17.40;32.10;;;;;;5034175;28;20187;-70
2023/05/24 04:00:15;;;;;;;93.33;2.47;;;17.40;32.60;;;;;;5033426;28;20552;-70
2023/05/24 04:02:41;;;;;;;93.87;2.80;;;17.50;33.30;;;;;;5033614;28;20175;-70
2023/05/24 04:05:08;;;;;;;93.17;2.30;;;17.60;31.80;;;;;;5033659;28;20204;-70
2023/05/24 04:07:37;;;;;;;94.90;2.77;;;17.70;31.90;;;;;;5032340;28;20196;-70
2023/05/24 04:10:05;;;;;;;93.10;2.50;;;17.60;31.90;;;;;;5033340;28;20404;-70
2023/05/24 04:12:31;;;;;;;96.77;2.90;;;17.70;32.70;;;;;;5032762;28;20451;-71
2023/05/24 04:14:57;;;;;;;93.70;2.60;;;17.60;31.60;;;;;;5032775;28;20809;-70
2023/05/24 04:17:23;;;;;;;93.07;2.30;;;16.70;34.00;;;;;;5051307;28;20516;-70
2023/05/24 04:19:50;;;;;;;93.63;2.60;;;16.90;34.90;;;;;;5072478;28;20432;-70
2023/05/24 04:22:17;;;;;;;93.27;2.57;;;17.00;33.10;;;;;;5072924;28;20630;-70
2023/05/24 04:24:46;;;;;;;93.53;2.80;;;17.30;33.60;;;;;;5071700;28;20517;-72
2023/05/24 04:27:12;;;;;;;93.47;2.60;;;17.40;33.50;;;;;;5072650;28;20449;-70
2023/05/24 04:29:41;;;;;;;93.10;2.27;;;17.50;33.00;;;;;;5072352;28;20445;-70
2023/05/24 04:32:08;;;;;;;93.37;2.50;;;17.40;33.50;;;;;;5044971;28;20511;-70
2023/05/24 04:34:34;;;;;;;93.57;2.63;;;17.40;33.40;;;;;;5046984;28;21010;-70
2023/05/24 04:37:00;;;;;;;93.80;2.87;;;17.50;32.10;;;;;;5032340;28;20506;-70
2023/05/24 04:39:27;;;;;;;93.37;2.40;;;17.50;33.70;;;;;;5030845;28;20177;-70
2023/05/24 04:41:55;;;;;;;93.77;2.90;;;17.50;32.40;;;;;;5032209;28;20504;-70
2023/05/24 04:44:20;;;;;;;93.33;2.40;;;17.20;33.00;;;;;;5031802;28;20428;-70
2023/05/24 04:46:46;;;;;;;94.10;2.50;;;17.50;32.50;;;;;;5030837;28;20848;-70
2023/05/24 04:49:12;;;;;;;92.93;2.40;;;17.40;31.60;;;;;;5050397;28;20207;-70
2023/05/24 04:51:38;;;;;;;93.17;2.27;;;17.50;33.20;;;;;;5052007;28;20181;-71
2023/05/24 04:54:07;;;;;;;93.00;2.20;;;17.50;32.80;;;;;;5051445;28;20222;-70
2023/05/24 04:56:34;;;;;;;94.47;2.87;;;17.50;32.70;;;;;;5052217;28;20411;-70
2023/05/24 04:59:00;;;;;;;93.17;2.33;;;17.60;33.80;;;;;;5052314;28;20506;-70
2023/05/24 05:01:26;;;;;;;94.43;2.70;;;17.50;34.10;;;;;;5051758;28;20532;-70
2023/05/24 05:03:52;;;;;;;93.37;2.60;;;17.60;33.30;;;;;;5048993;28;20598;-70
2023/05/24 05:06:17;;;;;;;93.60;2.67;;;17.60;33.20;;;;;;5049554;28;20811;-72
2023/05/24 05:08:43;;;;;;;93.47;2.57;;;17.60;34.40;;;;;;5052050;28;20179;-70
2023/05/24 05:11:09;;;;;;;92.87;2.27;;;18.60;33.80;;;;;;5051927;28;20176;-70
2023/05/24 05:13:34;;;;;;;96.53;3.00;;;17.70;33.80;;;;;;5051126;28;20178;-72
2023/05/24 05:16:01;;;;;;;93.17;2.43;;;17.70;34.00;;;;;;5051538;28;20543;-70
2023/05/24 05:18:27;;;;;;;93.30;2.53;;;17.70;32.80;;;;;;5051415;28;20192;-70
2023/05/24 05:20:52;;;;;;;93.00;2.27;;;17.70;32.60;;;;;;5051540;28;20458;-70
2023/05/24 05:23:18;;;;;;;93.70;2.77;;;17.50;33.20;;;;;;5050885;28;20257;-72
2023/05/24 05:25:43;;;;;;;93.30;2.40;;;17.60;33.30;;;;;;5051529;28;20228;-70
2023/05/24 05:28:09;;;;;;;93.17;2.33;;;17.70;33.10;;;;;;5051537;28;20258;-70
2023/05/24 05:30:35;;;;;;;92.90;2.30;;;17.70;33.20;;;;;;5051325;28;20613;-72
2023/05/24 05:33:00;;;;;;;93.17;2.60;;;17.90;32.40;;;;;;5049520;28;20192;-71
2023/05/24 05:35:26;;;;;;;93.83;2.67;;;17.90;33.20;;;;;;5051237;28;20277;-70
2023/05/24 05:37:51;;;;;;;92.97;2.30;;;17.80;32.90;;;;;;5049858;28;20259;-70
2023/05/24 05:40:17;;;;;;;93.47;2.97;;;17.70;33.90;;;;;;5051579;28;20585;-70
2023/05/24 05:42:43;;;;;;;93.47;2.80;;;17.90;32.10;;;;;;5050636;28;20639;-71
2023/05/24 05:45:09;;;;;;;93.27;2.67;;;17.90;32.80;;;;;;5051252;28;20199;-72
2023/05/24 05:47:35;;;;;;;92.97;2.37;;;17.70;33.90;;;;;;5051133;28;20234;-71
2023/05/24 05:50:00;;;;;;;97.50;4.50;;;17.30;33.90;;;;;;5051381;28;20450;-70
2023/05/24 05:52:26;;;;;;;93.27;2.80;;;17.30;32.60;;;;;;5051045;28;20532;-70
2023/05/24 05:54:51;;;;;;;92.87;2.40;;;17.20;34.50;;;;;;5049659;28;20200;-70
2023/05/24 05:57:22;;;;;;;94.20;2.70;;;17.40;32.30;;;;;;5051240;28;20232;-70
2023/05/24 05:59:48;;;;;;;92.77;2.43;;;17.30;32.50;;;;;;5051222;28;20524;-70
2023/05/24 06:02:14;;;;;;;96.23;3.43;;;17.50;32.10;;;;;;5051022;28;20454;-70
2023/05/24 06:04:39;;;;;;;92.83;2.33;;;17.40;32.90;;;;;;5050444;28;20465;-72
2023/05/24 06:07:05;;;;;;;93.03;2.70;;;17.10;32.80;;;;;;5051065;28;20509;-71
2023/05/24 06:09:31;;;;;;;92.80;2.40;;;17.10;33.30;;;;;;5051113;28;20171;-70
2023/05/24 06:11:56;;;;;;;100.43;2.60;;;17.40;31.90;;;;;;5051077;28;20651;-70
2023/05/24 06:14:23;;;;;;;92.80;2.40;;;17.70;33.10;;;;;;5050362;28;20705;-70
2023/05/24 06:16:51;;;;;;;92.77;2.53;;;17.30;32.30;;;;;;5050738;28;20180;-70
2023/05/24 06:19:17;;;;;;;92.47;2.40;;;17.40;32.00;;;;;;5051144;28;20405;-70
2023/05/24 06:21:46;;;;;;;92.77;2.67;;;17.30;32.60;;;;;;5050632;28;20508;-70
2023/05/24 06:24:19;;;;;;;92.67;2.70;;;17.40;33.00;;;;;;5050313;28;20435;-70
2023/05/24 06:26:46;;;;;;;92.27;2.30;;;17.60;31.60;;;;;;5050817;28;20946;-70
2023/05/24 06:29:12;;;;;;;92.17;2.20;;;17.60;32.40;;;;;;5050867;28;20446;-70
2023/05/24 06:31:38;;;;;;;92.50;2.50;;;17.30;31.20;;;;;;5054350;28;20910;-70
2023/05/24 06:34:04;;;;;;;92.30;2.33;;;17.40;32.40;;;;;;5054024;28;20482;-70
2023/05/24 06:36:32;;;;;;;93.37;2.70;;;17.70;32.70;;;;;;5053398;28;20428;-70
2023/05/24 06:38:58;;;;;;;92.07;2.27;;;17.30;32.20;;;;;;5053261;28;20180;-70
2023/05/24 06:41:25;;;;;;;93.17;2.37;;;17.60;32.00;;;;;;5054273;28;20457;-72
2023/05/24 06:43:51;;;;;;;92.60;2.67;;;17.90;31.30;;;;;;5053801;28;20199;-72
2023/05/24 06:46:17;;;;;;;92.17;2.37;;;17.90;31.00;;;;;;5053358;28;20428;-72
2023/05/24 06:48:42;;;;;;;92.70;2.60;;;17.90;30.70;;;;;;5054252;28;20565;-72
2023/05/24 06:51:08;;;;;;;92.57;2.43;;;18.00;31.40;;;;;;5054428;28;20179;-72
2023/05/24 06:53:33;;;;;;;92.80;2.70;;;18.20;29.80;;;;;;5053638;28;20542;-72
2023/05/24 06:55:59;;;;;;;112.30;3.53;;;18.00;29.60;;;;;;5053996;28;20176;-72
2023/05/24 06:58:24;;;;;;;92.00;2.20;;;17.90;29.90;;;;;;5054197;28;20636;-71
2023/05/24 07:00:50;;;;;;;92.10;2.47;;;18.00;31.20;;;;;;5054029;28;20202;-72
2023/05/24 07:03:16;;;;;;;92.27;2.60;;;18.00;30.30;;;;;;5052324;28;20203;-72
2023/05/24 07:05:42;;;;;;;92.10;2.40;;;18.20;29.60;;;;;;5053919;28;20486;-72
2023/05/24 07:08:08;;;;;;;92.23;2.70;;;18.00;29.40;;;;;;5054315;28;20183;-71
2023/05/24 07:10:33;;;;;;;92.17;2.60;;;17.70;30.00;;;;;;5052431;28;20178;-71
2023/05/24 07:13:00;;;;;;;93.70;2.83;;;17.30;32.50;;;;;;5053165;28;20415;-71
2023/05/24 07:15:26;;;;;;;92.77;2.93;;;17.50;31.50;;;;;;5052478;28;20224;-73
2023/05/24 07:17:52;;;;;;;92.17;2.50;;;17.50;32.20;;;;;;5052274;28;20851;-71
2023/05/24 07:20:17;;;;;;;91.97;2.40;;;17.90;31.70;;;;;;5053883;28;20172;-71
2023/05/24 07:22:43;;;;;;;92.03;2.80;;;17.40;32.70;;;;;;5052863;28;20211;-71
2023/05/24 07:25:09;;;;;;;93.40;3.17;;;17.90;31.20;;;;;;5053704;28;20196;-71
2023/05/24 07:27:35;;;;;;;91.60;2.60;;;18.30;29.90;;;;;;5053654;28;20184;-72
2023/05/24 07:30:01;;;;;;;92.60;2.70;;;18.40;30.00;;;;;;5053632;28;20174;-71
2023/05/24 07:32:27;;;;;;;91.83;2.50;;;18.50;31.50;;;;;;5053944;28;20495;-71
2023/05/24 07:34:53;;;;;;;91.63;2.50;;;18.70;32.00;;;;;;5053026;28;20476;-71
2023/05/24 07:37:18;;;;;;;92.30;2.87;;;18.70;30.10;;;;;;5053577;28;20174;-71
2023/05/24 07:39:44;;;;;;;91.60;2.40;;;18.70;30.20;;;;;;5052065;28;20984;-72
2023/05/24 07:42:10;;;;;;;91.20;2.20;;;18.80;30.30;;;;;;5053071;28;20200;-71
2023/05/24 07:44:35;;;;;;;94.20;2.90;;;19.00;30.60;;;;;;5052788;28;20427;-71
2023/05/24 07:47:01;;;;;;;92.10;2.80;;;18.90;29.60;;;;;;5053458;28;20653;-72
2023/05/24 07:49:27;;;;;;;91.80;2.40;;;18.90;29.00;;;;;;5053484;28;20179;-72
2023/05/24 07:51:57;;;;;;;91.97;2.60;;;18.80;29.00;;;;;;5052997;28;20429;-72
2023/05/24 07:54:22;;;;;;;91.57;2.63;;;18.70;29.60;;;;;;5051500;28;20270;-72
2023/05/24 07:56:48;;;;;;;92.07;2.87;;;18.60;29.10;;;;;;5051770;28;20913;-71
2023/05/24 07:59:14;;;;;;;91.17;2.50;;;18.50;29.30;;;;;;5051730;28;20190;-72
2023/05/24 08:01:40;;;;;;;92.30;2.77;;;18.40;31.50;;;;;;5053311;28;20256;-71
2023/05/24 08:04:08;;;;;;;91.10;2.50;;;17.40;30.40;;;;;;5052137;28;20449;-70
2023/05/24 08:06:34;;;;;;;91.10;2.40;;;17.70;32.40;;;;;;5052964;28;20602;-70
2023/05/24 08:09:00;;;;;;;91.47;2.70;;;18.20;30.70;;;;;;5051463;28;20618;-70
2023/05/24 08:11:26;;;;;;;91.23;2.53;;;17.30;30.60;;;;;;5052955;28;20175;-72
2023/05/24 08:13:52;;;;;;;91.10;2.43;;;16.80;32.00;;;;;;5050861;28;20442;-70
2023/05/24 08:16:18;;;;;;;91.20;2.50;;;17.30;31.50;;;;;;5053118;28;20206;-70
2023/05/24 08:18:43;;;;;;;91.10;2.60;;;17.90;30.60;;;;;;5051446;28;20188;-70
2023/05/24 08:21:09;;;;;;;91.83;2.53;;;18.30;30.10;;;;;;5052463;28;20209;-71
2023/05/24 08:23:35;;;;;;;91.47;2.53;;;18.40;28.50;;;;;;5051775;28;20179;-71
2023/05/24 08:26:01;;;;;;;91.10;2.53;;;18.40;30.00;;;;;;5052666;28;20173;-71
2023/05/24 08:28:27;;;;;;;91.03;2.60;;;18.30;28.70;;;;;;5052370;28;20736;-70
2023/05/24 08:30:52;;;;;;;90.83;2.43;;;17.00;30.30;;;;;;5052240;28;20270;-70
2023/05/24 08:33:18;;;;;;;90.47;2.20;;;17.10;31.10;;;;;;5051761;28;20549;-70
2023/05/24 08:35:43;;;;;;;90.20;2.00;;;17.50;30.10;;;;;;5052336;28;20200;-70
2023/05/24 08:38:09;;;;;;;90.50;2.40;;;17.90;30.70;;;;;;5052196;28;20545;-71
2023/05/24 08:40:35;;;;;;;91.70;2.83;;;18.10;30.70;;;;;;5052101;28;20175;-72
2023/05/24 08:43:01;;;;;;;90.63;2.17;;;17.10;30.30;;;;;;5051637;28;20168;-70
2023/05/24 08:45:31;;;;;;;91.43;2.73;;;16.70;30.80;;;;;;5052173;28;20199;-70
2023/05/24 08:47:58;;;;;;;91.70;3.33;;;16.60;31.50;;;;;;5052051;28;20746;-72
2023/05/24 08:50:24;;;;;;;90.50;2.50;;;16.90;31.70;;;;;;5052056;28;20796;-70
2023/05/24 08:52:50;;;;;;;90.60;2.50;;;17.30;31.40;;;;;;5050312;28;20439;-71
2023/05/24 08:55:16;;;;;;;97.33;3.30;;;17.60;31.00;;;;;;5052259;28;20427;-70
2023/05/24 08:57:44;;;;;;;90.57;2.33;;;17.60;32.60;;;;;;5051989;28;20546;-70
2023/05/24 09:00:11;;;;;;;90.67;2.50;;;17.60;30.70;;;;;;5051950;28;20254;-70
2023/05/24 09:02:41;;;;;;;90.67;2.57;;;17.90;31.90;;;;;;5049630;28;20468;-70
2023/05/24 09:05:10;;;;;;;93.00;3.27;;;17.90;32.20;;;;;;5051766;28;20496;-70
2023/05/24 09:07:36;;;;;;;91.00;2.67;;;17.20;31.50;;;;;;5051765;28;20444;-70
2023/05/24 09:10:07;;;;;;;91.00;2.50;;;17.00;31.30;;;;;;5051695;28;20448;-70
2023/05/24 09:12:35;;;;;;;91.07;2.53;;;16.10;34.30;;;;;;5051001;28;20512;-70
2023/05/24 09:15:02;;;;;;;93.13;3.63;;;16.80;35.20;;;;;;5051600;28;20503;-70
2023/05/24 09:17:29;;;;;;;90.70;2.40;;;17.10;32.00;;;;;;5051721;28;20419;-70
2023/05/24 09:19:58;;;;;;;90.67;2.40;;;16.40;33.10;;;;;;5051210;28;20418;-70
2023/05/24 09:22:27;;;;;;;90.80;2.37;;;17.10;34.30;;;;;;5051620;28;20566;-72
2023/05/24 09:24:56;;;;;;;91.10;2.67;;;17.60;31.00;;;;;;5050804;28;20432;-71
2023/05/24 09:27:22;;;;;;;90.90;2.57;;;17.80;31.40;;;;;;5050276;28;20417;-71
2023/05/24 09:29:50;;;;;;;94.97;3.30;;;17.50;31.70;;;;;;5051111;28;20488;-70
2023/05/24 09:32:17;;;;;;;90.77;2.80;;;17.60;32.10;;;;;;5050149;28;20376;-70
2023/05/24 09:34:46;;;;;;;90.53;2.30;;;18.00;31.30;;;;;;5050521;28;20442;-71
2023/05/24 09:37:20;;;;;;;92.10;2.57;;;18.40;31.10;;;;;;5050243;28;20443;-70
2023/05/24 09:39:47;;;;;;;90.47;2.23;;;17.90;29.60;;;;;;5050995;28;20978;-70
2023/05/24 09:42:17;;;;;;;90.60;2.40;;;17.20;31.80;;;;;;5051342;28;20845;-72
2023/05/24 09:44:43;;;;;;;90.57;2.40;;;16.80;33.50;;;;;;5050562;28;20452;-71
2023/05/24 09:47:11;;;;;;;90.67;2.53;;;16.70;33.10;;;;;;5051368;28;20444;-70
2023/05/24 09:49:37;;;;;;;90.90;2.67;;;17.10;32.70;;;;;;5051285;28;20426;-72
2023/05/24 09:52:02;;;;;;;90.50;2.30;;;17.30;30.70;;;;;;5051615;28;20768;-70
2023/05/24 09:54:30;;;;;;;91.37;2.67;;;17.40;31.10;;;;;;5050566;28;20196;-70
2023/05/24 09:57:00;;;;;;;91.27;2.43;;;20.40;33.70;;;;;;5051707;28;20174;-70
2023/05/24 09:59:26;;;;;;;92.90;2.93;;;18.50;29.70;;;;;;5050953;28;20480;-70
2023/05/24 10:02:05;;;;;;;90.57;2.60;;;17.90;29.10;;;;;;5049826;28;20468;-70
2023/05/24 10:04:34;;;;;;;90.60;2.77;;;17.30;30.20;;;;;;5051198;28;20459;-71
2023/05/24 10:07:01;;;;;;;90.00;2.30;;;18.00;31.60;;;;;;5055307;28;20411;-70
2023/05/24 10:09:32;;;;;;;90.83;2.73;;;18.60;29.30;;;;;;5055063;28;20399;-70
2023/05/24 10:12:03;;;;;;;90.37;2.40;;;18.70;28.70;;;;;;5054707;28;20398;-70
2023/05/24 10:14:36;;;;;;;89.90;2.37;;;18.90;28.90;;;;;;5054357;28;20784;-71
2023/05/24 10:17:04;;;;;;;89.90;2.40;;;18.90;28.10;;;;;;5054979;28;20856;-71
2023/05/24 10:19:30;;;;;;;89.97;2.40;;;19.00;28.80;;;;;;5054882;28;20423;-71
2023/05/24 10:21:57;;;;;;;90.67;2.37;;;19.30;27.70;;;;;;5054564;28;20445;-71
2023/05/24 10:24:28;;;;;;;91.30;2.83;;;19.20;28.80;;;;;;5053984;28;20427;-71
2023/05/24 10:26:56;;;;;;;90.20;2.80;;;19.10;27.00;;;;;;5054851;28;20424;-72
2023/05/24 10:29:33;;;;;;;90.13;2.50;;;18.80;29.60;;;;;;5054768;28;20495;-73
2023/05/24 10:31:59;;;;;;;89.97;2.60;;;18.90;29.00;;;;;;5054546;28;20811;-71
2023/05/24 10:34:25;;;;;;;89.57;2.60;;;18.90;28.50;;;;;;5054009;28;20475;-71
2023/05/24 10:36:51;;;;;;;91.00;2.93;;;21.40;30.30;;;;;;5054618;28;20820;-71
2023/05/24 10:39:20;;;;;;;90.70;2.87;;;19.10;27.80;;;;;;5054316;28;20176;-71
2023/05/24 10:41:46;;;;;;;88.73;1.80;;;19.00;28.90;;;;;;5053035;28;20256;-71
2023/05/24 10:44:12;;;;;;;89.00;2.20;;;19.00;27.90;;;;;;5052589;28;20961;-72
2023/05/24 10:47:07;;;;;;;89.53;2.40;;;18.70;27.90;;;;;;5053194;28;20197;-72
2023/05/24 10:49:33;;;;;;;89.10;2.60;;;18.70;27.00;;;;;;5054236;28;20423;-71
2023/05/24 10:52:09;;;;;;;89.40;2.70;;;18.60;28.50;;;;;;5054361;28;20909;-71
2023/05/24 10:54:35;;;;;;;88.90;2.60;;;18.60;27.80;;;;;;5053727;28;20563;-71
2023/05/24 10:57:03;;;;;;;90.23;2.70;;;18.20;28.50;;;;;;5052827;28;20405;-72
2023/05/24 10:59:33;;;;;;;88.80;2.40;;;18.40;29.10;;;;;;5054167;28;20409;-72
2023/05/24 11:02:00;;;;;;;88.50;2.37;;;18.00;27.10;;;;;;5052704;28;20457;-71
2023/05/24 11:04:30;;;;;;;89.33;2.67;;;17.60;30.00;;;;;;5053535;28;20476;-71
2023/05/24 11:07:04;;;;;;;88.50;2.40;;;17.60;29.40;;;;;;5054560;28;20401;-71
2023/05/24 11:09:32;;;;;;;90.77;3.03;;;17.90;28.20;;;;;;5053870;28;20427;-72
2023/05/24 11:12:07;;;;;;;88.20;2.17;;;18.10;29.20;;;;;;5053997;28;20899;-71
2023/05/24 11:14:38;;;;;;;89.20;2.70;;;18.30;28.60;;;;;;5053213;28;20427;-72
2023/05/24 11:17:05;;;;;;;89.00;2.60;;;18.40;29.20;;;;;;5053904;28;20407;-71
2023/05/24 11:19:33;;;;;;;89.77;2.90;;;18.00;30.00;;;;;;5054241;28;20421;-71
2023/05/24 11:22:00;;;;;;;88.50;2.47;;;18.00;29.00;;;;;;5054900;28;20991;-71
2023/05/24 11:24:26;;;;;;;88.10;2.23;;;17.80;27.70;;;;;;5053487;28;20457;-71
2023/05/24 11:26:52;;;;;;;89.27;3.00;;;17.60;29.90;;;;;;5055953;28;20413;-71
2023/05/24 11:29:21;;;;;;;89.20;2.83;;;17.80;30.40;;;;;;5055200;28;20413;-71
2023/05/24 11:31:56;;;;;;;87.90;2.17;;;18.10;28.70;;;;;;5054485;28;20409;-71
2023/05/24 11:34:23;;;;;;;91.30;3.63;;;18.30;28.70;;;;;;5052646;28;20442;-71
2023/05/24 11:36:50;;;;;;;88.10;2.30;;;18.50;28.10;;;;;;5054561;28;20409;-71
2023/05/24 11:39:17;;;;;;;87.87;2.30;;;18.20;29.60;;;;;;5054793;28;20438;-71
2023/05/24 11:41:43;;;;;;;88.60;2.20;;;18.20;28.40;;;;;;5053879;28;20481;-71
2023/05/24 11:44:10;;;;;;;88.87;2.60;;;18.20;28.30;;;;;;5054157;28;20441;-71
2023/05/24 11:46:38;;;;;;;87.97;2.40;;;18.40;29.30;;;;;;5055261;28;20981;-71
2023/05/24 11:49:04;;;;;;;88.77;2.40;;;18.20;28.00;;;;;;5054256;28;20800;-71
2023/05/24 11:51:32;;;;;;;88.00;2.30;;;18.20;28.20;;;;;;5055097;28;20829;-71
2023/05/24 11:53:58;;;;;;;88.90;2.87;;;18.50;27.70;;;;;;5055321;28;20960;-72
2023/05/24 11:56:26;;;;;;;87.90;2.43;;;18.40;28.30;;;;;;5056967;28;20423;-72
2023/05/24 11:59:07;;;;;;;87.80;2.07;;;18.40;28.70;;;;;;5054766;28;20421;-72
2023/05/24 12:01:33;;;;;;;88.60;2.70;;;18.30;28.20;;;;;;5055662;28;20545;-72
2023/05/24 12:03:59;;;;;;;101.80;3.13;;;18.20;28.30;;;;;;5055038;28;20977;-71
2023/05/24 12:06:43;;;;;;;89.53;2.87;;;18.20;28.60;;;;;;5056564;28;20255;-71
2023/05/24 12:09:12;;;;;;;88.20;2.43;;;18.30;28.00;;;;;;5055509;28;20381;-71
2023/05/24 12:11:42;;;;;;;88.37;2.33;;;18.10;28.80;;;;;;5054947;28;20402;-71
2023/05/24 12:14:15;;;;;;;88.20;2.57;;;18.10;28.80;;;;;;5054401;28;20531;-71
2023/05/24 12:16:42;;;;;;;87.80;2.30;;;18.30;29.30;;;;;;5055072;28;20409;-71
2023/05/24 12:19:15;;;;;;;89.40;2.47;;;18.40;28.30;;;;;;5054900;28;20497;-71
2023/05/24 12:21:41;;;;;;;88.00;2.40;;;18.20;28.70;;;;;;5054860;28;20442;-72
2023/05/24 12:24:26;;;;;;;89.13;2.73;;;18.40;28.60;;;;;;5054529;28;20514;-71
2023/05/24 12:26:56;;;;;;;87.87;2.33;;;18.60;29.30;;;;;;5054769;28;20403;-71
2023/05/24 12:29:22;;;;;;;88.20;2.57;;;18.60;28.10;;;;;;5054819;28;20476;-71
2023/05/24 12:31:48;;;;;;;88.00;2.40;;;18.80;28.40;;;;;;5054272;28;20465;-71
2023/05/24 12:34:18;;;;;;;87.77;2.27;;;17.90;28.00;;;;;;5053270;28;20202;-71
2023/05/24 12:36:45;;;;;;;89.33;3.20;;;17.70;30.00;;;;;;5052190;28;20406;-71